Time;durP1;ratioP1;P1;durP2;ratioP2;P2;SDS_P1;SDS_P2;PMS_P1;PMS_P2;Temp;Humidity;BMP_temperature;BMP_pressure;BME280_temperature;BME280_humidity;BME280_pressure;Samples;Min_cycle;Max_cycle;Signal;HPM_P1;HPM_P2
2023/07/06 00:00:00;;;;;;;7.50;5.40;;;;;;;29.09;40.00;100174.51;107792;1290;21993;-71
2023/07/06 00:02:26;;;;;;;6.80;5.10;;;;;;;29.07;39.97;100174.33;107849;1283;21989;-60
2023/07/06 00:04:52;;;;;;;11.50;5.20;;;;;;;29.06;40.14;100172.77;107795;1284;22029;-71
2023/07/06 00:07:21;;;;;;;7.40;5.20;;;;;;;29.05;40.12;100173.93;107835;1290;21990;-71
2023/07/06 00:09:48;;;;;;;9.30;5.40;;;;;;;29.02;40.15;100175.67;107826;1284;22027;-71
2023/07/06 00:12:15;;;;;;;6.30;4.80;;;;;;;28.99;40.27;100178.33;107838;1290;21954;-70
2023/07/06 00:14:40;;;;;;;5.20;4.70;;;;;;;28.99;40.34;100173.86;107853;1284;22112;-59
2023/07/06 00:17:15;;;;;;;8.40;5.40;;;;;;;28.98;40.45;100171.40;107815;1284;21990;-70
2023/07/06 00:19:41;;;;;;;6.60;5.30;;;;;;;28.95;40.65;100173.27;107800;1287;21992;-71
2023/07/06 00:22:08;;;;;;;9.40;5.20;;;;;;;28.92;40.93;100172.97;107782;1290;21988;-71
2023/07/06 00:24:34;;;;;;;7.90;5.70;;;;;;;28.90;40.74;100176.27;107850;1284;21990;-59
2023/07/06 00:26:59;;;;;;;6.80;5.50;;;;;;;28.88;40.83;100172.12;107783;1280;21993;-71
2023/07/06 00:29:27;;;;;;;8.10;5.90;;;;;;;28.87;40.82;100173.33;107786;1290;21990;-60
2023/07/06 00:32:03;;;;;;;7.90;5.10;;;;;;;28.85;40.87;100171.36;107805;1284;22009;-60
2023/07/06 00:34:33;;;;;;;7.50;5.30;;;;;;;28.82;40.99;100166.37;107814;1290;22007;-60
2023/07/06 00:36:59;;;;;;;7.40;5.50;;;;;;;28.79;40.94;100165.31;107877;1284;21989;-71
2023/07/06 00:39:26;;;;;;;8.50;5.10;;;;;;;28.77;41.15;100162.98;107905;1283;22003;-63
2023/07/06 00:41:52;;;;;;;8.50;5.20;;;;;;;28.74;41.32;100162.52;107927;1290;21990;-60
2023/07/06 00:44:46;;;;;;;8.40;5.30;;;;;;;28.70;41.26;100161.46;107813;1289;22000;-71
2023/07/06 00:47:12;;;;;;;11.00;6.40;;;;;;;28.64;41.47;100159.45;107864;1290;22020;-60
2023/07/06 00:49:39;;;;;;;8.60;6.30;;;;;;;28.59;41.77;100157.92;107833;1290;22000;-71
2023/07/06 00:52:06;;;;;;;9.10;5.40;;;;;;;28.55;41.60;100158.09;107928;1289;22014;-71
2023/07/06 00:54:35;;;;;;;8.70;5.50;;;;;;;28.50;41.62;100150.98;107964;1286;21997;-70
2023/07/06 00:57:02;;;;;;;10.50;5.60;;;;;;;28.46;41.90;100150.26;107910;1284;22000;-63
2023/07/06 00:59:29;;;;;;;9.70;5.60;;;;;;;28.44;41.99;100149.42;107957;1281;21990;-70
2023/07/06 01:01:55;;;;;;;7.10;5.50;;;;;;;28.42;41.89;100154.29;107752;1289;22157;-71
2023/07/06 01:04:21;;;;;;;9.10;5.90;;;;;;;28.41;42.05;100152.04;107844;1284;21988;-70
2023/07/06 01:06:49;;;;;;;9.00;6.10;;;;;;;28.38;42.22;100153.77;107826;1289;22095;-60
2023/07/06 01:09:15;;;;;;;10.00;6.10;;;;;;;28.35;42.31;100157.44;107972;1289;23831;-66
2023/07/06 01:11:41;;;;;;;8.20;5.60;;;;;;;28.33;42.11;100156.89;107983;1283;22043;-60
2023/07/06 01:14:13;;;;;;;9.40;5.80;;;;;;;28.31;42.41;100158.09;107828;1284;22034;-71
2023/07/06 01:16:58;;;;;;;10.90;5.60;;;;;;;28.29;42.50;100154.11;107964;1289;22454;-70
2023/07/06 01:19:46;;;;;;;10.30;5.80;;;;;;;28.27;42.53;100152.04;107966;1283;22000;-60
2023/07/06 01:22:40;;;;;;;6.10;5.50;;;;;;;28.28;42.74;100154.64;107925;1287;22022;-59
2023/07/06 01:25:30;;;;;;;8.80;5.40;;;;;;;28.27;42.48;100157.56;107947;1283;21988;-71
2023/07/06 01:28:17;;;;;;;9.20;5.80;;;;;;;28.27;42.70;100159.62;107942;1283;21990;-60
2023/07/06 01:31:02;;;;;;;9.00;6.10;;;;;;;28.25;42.89;100157.94;107962;1278;21997;-59
2023/07/06 01:33:36;;;;;;;7.90;5.90;;;;;;;28.23;42.88;100160.65;107996;1287;21997;-59
2023/07/06 01:36:08;;;;;;;7.70;5.90;;;;;;;28.22;42.97;100161.47;107945;1283;21995;-59
2023/07/06 01:38:34;;;;;;;9.10;5.70;;;;;;;28.21;42.93;100163.54;107932;1286;22838;-59
2023/07/06 01:40:59;;;;;;;11.10;6.00;;;;;;;28.21;43.08;100163.20;107891;1283;21988;-70
2023/07/06 01:43:27;;;;;;;7.40;5.30;;;;;;;28.21;43.09;100163.03;107896;1284;21990;-70
2023/07/06 01:45:53;;;;;;;11.60;6.00;;;;;;;28.20;43.18;100160.34;107894;1287;21987;-71
2023/07/06 01:48:20;;;;;;;10.50;6.10;;;;;;;28.21;43.21;100162.30;107780;1284;21998;-70
2023/07/06 01:51:09;;;;;;;11.20;6.00;;;;;;;28.21;43.20;100162.27;107825;1284;22248;-59
2023/07/06 01:53:54;;;;;;;11.90;6.20;;;;;;;28.22;43.30;100164.23;107842;1284;21987;-70
2023/07/06 01:56:34;;;;;;;6.80;5.90;;;;;;;28.21;43.19;100164.27;107851;1279;22028;-70
2023/07/06 01:59:05;;;;;;;10.80;5.30;;;;;;;28.21;43.17;100162.09;107794;1288;23715;-70
2023/07/06 02:01:42;;;;;;;11.10;5.80;;;;;;;28.22;43.26;100164.01;107884;1280;23071;-71
2023/07/06 02:04:07;;;;;;;11.00;6.10;;;;;;;28.23;43.21;100161.02;107720;1289;21991;-59
2023/07/06 02:06:35;;;;;;;10.00;5.60;;;;;;;28.24;43.21;100159.16;107867;1289;21985;-59
2023/07/06 02:09:02;;;;;;;9.30;5.70;;;;;;;28.24;43.24;100157.65;107836;1289;21986;-59
2023/07/06 02:11:28;;;;;;;9.50;6.20;;;;;;;28.24;43.40;100154.44;107816;1289;21986;-59
2023/07/06 02:13:53;;;;;;;10.00;6.60;;;;;;;28.24;43.27;100154.64;107833;1284;21996;-59
2023/07/06 02:16:19;;;;;;;10.30;5.80;;;;;;;28.24;43.29;100150.52;107731;1289;21986;-60
2023/07/06 02:18:45;;;;;;;7.00;5.80;;;;;;;28.23;43.39;100147.91;107847;1290;21996;-59
2023/07/06 02:21:11;;;;;;;7.50;5.70;;;;;;;28.20;43.44;100145.74;107806;1283;21987;-70
2023/07/06 02:23:37;;;;;;;13.00;6.60;;;;;;;28.25;43.28;100143.13;107825;1290;21990;-70
2023/07/06 02:26:03;;;;;;;8.40;5.80;;;;;;;28.26;43.30;100146.55;107831;1289;22004;-70
2023/07/06 02:28:29;;;;;;;6.70;5.70;;;;;;;28.21;43.39;100149.67;107832;1283;21998;-59
2023/07/06 02:30:57;;;;;;;14.40;5.60;;;;;;;28.20;43.42;100149.24;107855;1283;22049;-59
2023/07/06 02:33:28;;;;;;;7.80;5.50;;;;;;;28.24;43.46;100148.67;108014;1286;21994;-60
2023/07/06 02:35:54;;;;;;;7.80;6.00;;;;;;;28.28;43.53;100148.25;107963;1278;22001;-60
2023/07/06 02:38:20;;;;;;;7.30;6.20;;;;;;;28.31;43.44;100147.69;107828;1280;22027;-70
2023/07/06 02:40:46;;;;;;;7.50;5.90;;;;;;;28.30;43.59;100144.30;107822;1290;22006;-60
2023/07/06 02:43:12;;;;;;;23.70;6.50;;;;;;;28.29;43.57;100147.17;107803;1284;22455;-71
2023/07/06 02:45:38;;;;;;;9.20;5.60;;;;;;;28.27;43.57;100144.04;107858;1284;22001;-71
2023/07/06 02:48:04;;;;;;;9.20;5.90;;;;;;;28.27;43.69;100143.13;107841;1283;22105;-72
2023/07/06 02:50:30;;;;;;;7.70;5.50;;;;;;;28.28;43.63;100143.13;107800;1290;21990;-70
2023/07/06 02:52:56;;;;;;;15.00;6.40;;;;;;;28.28;43.58;100144.30;107824;1284;21998;-61
2023/07/06 02:55:23;;;;;;;7.90;5.20;;;;;;;28.33;43.73;100144.27;107851;1290;21991;-70
2023/07/06 02:57:49;;;;;;;7.50;6.20;;;;;;;28.37;43.71;100139.23;108056;1289;21991;-74
2023/07/06 03:00:17;;;;;;;14.70;6.20;;;;;;;28.38;43.61;100138.75;107869;1279;23835;-71
2023/07/06 03:02:43;;;;;;;8.50;5.90;;;;;;;28.41;43.69;100137.00;108232;1290;21989;-70
2023/07/06 03:05:11;;;;;;;14.10;6.10;;;;;;;28.41;43.67;100136.52;107833;1280;21985;-71
2023/07/06 03:07:38;;;;;;;10.20;6.10;;;;;;;28.44;43.56;100138.41;107861;1283;21990;-71
2023/07/06 03:10:05;;;;;;;8.70;5.50;;;;;;;28.46;43.45;100142.56;107819;1290;21986;-58
2023/07/06 03:12:33;;;;;;;8.30;6.00;;;;;;;28.48;43.75;100145.46;107895;1279;21993;-58
2023/07/06 03:15:13;;;;;;;7.80;5.70;;;;;;;28.49;43.87;100146.26;107863;1284;21998;-68
2023/07/06 03:17:40;;;;;;;9.80;5.60;;;;;;;28.47;43.74;100144.41;107878;1280;22010;-58
2023/07/06 03:20:14;;;;;;;10.00;6.10;;;;;;;28.47;43.83;100145.89;107760;1284;21992;-69
2023/07/06 03:22:40;;;;;;;12.40;5.90;;;;;;;28.48;43.89;100146.27;107829;1286;22115;-58
2023/07/06 03:25:10;;;;;;;7.50;5.50;;;;;;;28.51;43.84;100143.52;107852;1284;21982;-70
2023/07/06 03:27:37;;;;;;;6.50;5.20;;;;;;;28.55;44.03;100142.25;107860;1277;21989;-69
2023/07/06 03:30:07;;;;;;;10.10;5.50;;;;;;;28.59;44.14;100142.27;107812;1290;22049;-58
2023/07/06 03:32:37;;;;;;;9.20;5.40;;;;;;;28.62;44.34;100141.39;107794;1280;21990;-59
2023/07/06 03:35:04;;;;;;;14.90;5.60;;;;;;;28.68;44.10;100140.58;107802;1290;21993;-59
2023/07/06 03:37:30;;;;;;;13.70;6.60;;;;;;;28.72;44.10;100140.33;107900;1284;22083;-60
2023/07/06 03:39:55;;;;;;;9.20;6.90;;;;;;;28.75;44.46;100138.81;107813;1284;22117;-70
2023/07/06 03:42:21;;;;;;;11.00;5.40;;;;;;;28.78;44.41;100141.62;107811;1284;21987;-59
2023/07/06 03:44:47;;;;;;;7.70;5.70;;;;;;;28.82;44.24;100139.05;107850;1284;21997;-59
2023/07/06 03:47:14;;;;;;;8.00;5.10;;;;;;;28.89;44.24;100140.23;107809;1284;21989;-59
2023/07/06 03:49:41;;;;;;;8.10;5.20;;;;;;;28.96;44.36;100140.13;107886;1277;22000;-70
2023/07/06 03:52:06;;;;;;;8.90;5.90;;;;;;;29.03;44.24;100139.84;107823;1284;21989;-60
2023/07/06 03:54:34;;;;;;;9.10;6.10;;;;;;;29.11;44.20;100136.20;107846;1280;22007;-59
2023/07/06 03:57:01;;;;;;;8.80;5.80;;;;;;;29.19;44.41;100133.98;107823;1280;22003;-69
2023/07/06 03:59:31;;;;;;;7.70;5.60;;;;;;;29.27;44.15;100134.16;107837;1290;21992;-70
2023/07/06 04:01:57;;;;;;;12.00;6.30;;;;;;;29.37;43.98;100134.25;107763;1291;22024;-70
2023/07/06 04:04:28;;;;;;;7.20;6.40;;;;;;;29.46;44.12;100132.05;107860;1290;21994;-70
2023/07/06 04:06:57;;;;;;;7.60;5.80;;;;;;;29.53;43.94;100124.50;107916;1286;22457;-59
2023/07/06 04:09:26;;;;;;;9.10;5.80;;;;;;;29.61;43.91;100122.43;107886;1283;21994;-71
2023/07/06 04:11:52;;;;;;;6.90;5.50;;;;;;;29.71;44.02;100118.92;108069;1287;21992;-60
2023/07/06 04:14:25;;;;;;;11.30;5.80;;;;;;;29.80;43.91;100113.41;107839;1290;21989;-59
2023/07/06 04:16:51;;;;;;;11.40;6.30;;;;;;;29.90;43.94;100111.86;107858;1284;23630;-69
2023/07/06 04:19:17;;;;;;;8.10;6.20;;;;;;;30.00;43.84;100112.69;107870;1286;21996;-59
2023/07/06 04:21:43;;;;;;;8.20;6.20;;;;;;;30.08;43.82;100109.15;107820;1284;22052;-71
2023/07/06 04:24:11;;;;;;;10.40;5.70;;;;;;;30.18;43.73;100110.20;107822;1290;21987;-59
2023/07/06 04:30:36;;;;;;;10.40;6.60;;;;;;;30.08;44.13;100104.96;107469;1292;557524;-60
2023/07/06 04:33:04;;;;;;;7.60;6.00;;;;;;;30.55;43.59;100112.05;107645;1293;22003;-60
2023/07/06 04:35:31;;;;;;;9.40;6.40;;;;;;;30.71;43.32;100115.83;107413;1290;21998;-59
2023/07/06 04:37:58;;;;;;;10.10;6.80;;;;;;;30.82;43.23;100112.66;107494;1289;22007;-74
2023/07/06 04:40:26;;;;;;;14.40;6.50;;;;;;;30.91;43.05;100113.64;107416;1290;21993;-73
2023/07/06 04:42:52;;;;;;;10.40;6.40;;;;;;;31.02;43.20;100116.13;107438;1293;153582;-74
2023/07/06 04:45:18;;;;;;;7.40;5.90;;;;;;;31.13;43.23;100113.14;107789;1290;21994;-60
2023/07/06 04:47:44;;;;;;;10.40;7.10;;;;;;;31.23;43.07;100115.11;107773;1290;22002;-59
2023/07/06 04:50:12;;;;;;;6.90;6.00;;;;;;;31.32;42.97;100115.95;108325;1287;22049;-61
2023/07/06 04:52:38;;;;;;;7.20;6.40;;;;;;;31.43;42.85;100115.90;107843;1292;22000;-74
2023/07/06 04:55:08;;;;;;;8.10;6.80;;;;;;;31.57;43.06;100117.74;107798;1287;21994;-73
2023/07/06 04:57:35;;;;;;;7.30;5.80;;;;;;;31.72;42.87;100115.22;107848;1292;21991;-73
2023/07/06 05:00:01;;;;;;;6.60;5.70;;;;;;;31.85;42.68;100119.09;107943;1287;21994;-74
2023/07/06 05:02:30;;;;;;;7.30;5.70;;;;;;;32.00;42.53;100123.56;107805;1292;22006;-66
2023/07/06 05:05:00;;;;;;;9.80;6.30;;;;;;;32.19;42.43;100121.09;107808;1292;21992;-73
2023/07/06 05:07:27;;;;;;;8.80;6.20;;;;;;;32.37;42.32;100116.29;107834;1290;23740;-71
2023/07/06 05:09:52;;;;;;;7.50;6.30;;;;;;;32.57;42.18;100116.14;107758;1292;22004;-62
2023/07/06 05:12:18;;;;;;;7.10;5.70;;;;;;;32.79;42.04;100118.09;107823;1287;21995;-61
2023/07/06 05:14:44;;;;;;;7.40;5.90;;;;;;;33.00;41.58;100119.80;107779;1287;21993;-62
2023/07/06 05:17:10;;;;;;;14.50;6.40;;;;;;;33.21;41.51;100117.27;107797;1292;22001;-74
2023/07/06 05:19:37;;;;;;;9.20;5.90;;;;;;;33.44;41.03;100111.23;107809;1290;21993;-73
2023/07/06 05:22:05;;;;;;;7.80;5.40;;;;;;;33.64;40.69;100110.25;107805;1286;22009;-73
2023/07/06 05:24:31;;;;;;;9.10;5.60;;;;;;;33.79;40.50;100106.77;107849;1287;21997;-61
2023/07/06 05:26:57;;;;;;;9.60;5.50;;;;;;;34.00;40.30;100104.39;107816;1291;21986;-61
2023/07/06 05:29:23;;;;;;;10.10;5.60;;;;;;;34.19;40.14;100102.09;107792;1286;21989;-59
2023/07/06 05:31:49;;;;;;;7.90;6.30;;;;;;;34.41;39.91;100100.11;107801;1292;22028;-59
2023/07/06 05:34:14;;;;;;;9.90;5.60;;;;;;;34.63;39.70;100101.61;107789;1281;22067;-59
2023/07/06 05:36:40;;;;;;;7.40;5.70;;;;;;;34.81;39.32;100100.91;107819;1289;21988;-59
2023/07/06 05:39:06;;;;;;;9.30;5.70;;;;;;;34.97;39.29;100099.33;107806;1290;21992;-68
2023/07/06 05:41:32;;;;;;;8.90;5.20;;;;;;;35.15;39.03;100098.14;107819;1286;21990;-59
2023/07/06 05:43:58;;;;;;;7.50;5.50;;;;;;;35.32;38.60;100096.45;107855;1287;21982;-71
2023/07/06 05:46:24;;;;;;;7.00;4.90;;;;;;;35.49;38.56;100093.96;107824;1287;22049;-72
2023/07/06 05:48:50;;;;;;;7.10;5.10;;;;;;;35.73;38.39;100093.61;107877;1290;22010;-60
2023/07/06 05:51:16;;;;;;;5.50;4.80;;;;;;;35.96;38.09;100089.17;107820;1290;23059;-71
2023/07/06 05:53:45;;;;;;;9.70;5.70;;;;;;;36.19;37.94;100088.34;107811;1284;23647;-60
2023/07/06 05:56:11;;;;;;;5.00;4.40;;;;;;;36.39;37.64;100084.80;107781;1290;22522;-71
2023/07/06 05:58:37;;;;;;;6.30;5.50;;;;;;;36.61;37.27;100085.10;107764;1284;22040;-60
2023/07/06 06:01:04;;;;;;;10.10;5.00;;;;;;;36.82;37.15;100081.27;107744;1287;21988;-61
2023/07/06 06:03:30;;;;;;;7.00;4.70;;;;;;;37.11;37.15;100082.55;107869;1284;21990;-61
2023/07/06 06:05:55;;;;;;;5.90;4.60;;;;;;;37.36;36.92;100083.05;107730;1287;22008;-61
2023/07/06 06:08:21;;;;;;;5.50;4.50;;;;;;;37.56;36.61;100080.85;107748;1287;22027;-71
2023/07/06 06:10:50;;;;;;;7.00;4.30;;;;;;;37.70;36.34;100080.31;107737;1291;21990;-61
2023/07/06 06:13:16;;;;;;;7.50;5.10;;;;;;;37.84;36.13;100081.17;107762;1287;22000;-61
2023/07/06 06:15:42;;;;;;;5.90;4.80;;;;;;;38.03;36.10;100083.44;107731;1287;22002;-61
2023/07/06 06:18:09;;;;;;;6.80;4.50;;;;;;;38.31;35.76;100084.64;107778;1281;22001;-71
2023/07/06 06:20:37;;;;;;;7.00;4.70;;;;;;;38.62;35.42;100088.83;107719;1291;21993;-71
2023/07/06 06:23:04;;;;;;;6.90;4.30;;;;;;;38.87;35.22;100086.56;107778;1287;22002;-72
2023/07/06 06:25:30;;;;;;;6.70;4.40;;;;;;;39.08;35.08;100083.83;107852;1290;21994;-72
2023/07/06 06:27:56;;;;;;;6.90;4.30;;;;;;;39.32;34.64;100088.33;107801;1286;21991;-61
2023/07/06 06:30:21;;;;;;;5.70;4.20;;;;;;;39.54;34.51;100089.10;107870;1281;21994;-62
2023/07/06 06:32:48;;;;;;;6.20;4.00;;;;;;;39.79;34.22;100091.25;107825;1284;22006;-73
2023/07/06 06:35:32;;;;;;;7.40;4.30;;;;;;;40.06;33.90;100090.36;107883;1286;22024;-61
2023/07/06 06:37:57;;;;;;;8.40;4.60;;;;;;;40.35;33.91;100091.43;107997;1292;21998;-62
2023/07/06 06:40:23;;;;;;;7.30;4.70;;;;;;;40.56;33.76;100092.79;107733;1287;21991;-62
2023/07/06 06:42:49;;;;;;;5.20;4.30;;;;;;;40.76;33.38;100092.83;107807;1286;21994;-71
2023/07/06 06:45:16;;;;;;;6.50;4.50;;;;;;;40.92;32.96;100094.05;107696;1290;22033;-71
2023/07/06 06:47:41;;;;;;;7.30;4.20;;;;;;;41.07;32.73;100094.58;107776;1286;22037;-70
2023/07/06 06:50:13;;;;;;;5.50;3.90;;;;;;;41.21;32.62;100095.98;107936;1287;22489;-61
2023/07/06 06:52:40;;;;;;;5.90;4.20;;;;;;;41.43;32.49;100097.43;107783;1290;21997;-62
2023/07/06 06:55:07;;;;;;;6.00;4.30;;;;;;;41.60;31.46;100099.63;107709;1291;22030;-72
2023/07/06 06:57:33;;;;;;;8.90;4.30;;;;;;;41.68;31.44;100101.74;107885;1287;22209;-62
2023/07/06 07:00:01;;;;;;;9.60;4.80;;;;;;;41.77;31.35;100096.23;107851;1286;21991;-62
2023/07/06 07:02:27;;;;;;;8.20;4.20;;;;;;;41.87;31.14;100095.20;107815;1290;21986;-71
2023/07/06 07:04:58;;;;;;;7.80;4.20;;;;;;;41.98;31.16;100101.14;107845;1280;22271;-64
2023/07/06 07:07:25;;;;;;;5.50;4.00;;;;;;;42.14;30.83;100098.34;107756;1290;22000;-62
2023/07/06 07:09:53;;;;;;;6.60;4.00;;;;;;;42.34;30.85;100098.30;107790;1280;22001;-71
2023/07/06 07:12:19;;;;;;;5.70;3.30;;;;;;;42.57;30.35;100103.44;107781;1290;21994;-62
2023/07/06 07:14:48;;;;;;;6.20;4.10;;;;;;;42.57;28.35;100099.83;107945;1280;23053;-61
2023/07/06 07:17:14;;;;;;;8.40;5.40;;;;;;;42.47;29.21;100101.84;107820;1283;22005;-72
2023/07/06 07:19:41;;;;;;;5.90;4.20;;;;;;;42.63;29.48;100104.23;107799;1278;22178;-71
2023/07/06 07:22:06;;;;;;;5.00;3.80;;;;;;;42.81;29.30;100098.48;107804;1290;22172;-70
2023/07/06 07:24:33;;;;;;;11.70;4.40;;;;;;;43.01;29.32;100098.40;107888;1291;21998;-71
2023/07/06 07:27:00;;;;;;;7.50;4.00;;;;;;;43.19;29.10;100092.36;107763;1284;22002;-71
2023/07/06 07:29:26;;;;;;;6.10;3.70;;;;;;;43.34;28.98;100093.75;107739;1281;21987;-62
2023/07/06 07:31:51;;;;;;;6.00;3.70;;;;;;;43.53;28.95;100092.85;107768;1280;21989;-63
2023/07/06 07:34:18;;;;;;;8.10;3.80;;;;;;;43.75;28.63;100091.88;107768;1281;22002;-62
2023/07/06 07:36:44;;;;;;;9.70;3.50;;;;;;;43.93;28.35;100090.68;107775;1291;22042;-69
2023/07/06 07:39:10;;;;;;;6.30;4.00;;;;;;;44.08;28.29;100089.21;107762;1291;22014;-61
2023/07/06 07:41:35;;;;;;;4.60;3.50;;;;;;;44.28;28.10;100088.00;107800;1290;22004;-62
2023/07/06 07:44:01;;;;;;;5.30;3.70;;;;;;;44.49;28.03;100090.19;107732;1284;21989;-62
2023/07/06 07:46:29;;;;;;;6.30;3.50;;;;;;;44.69;27.83;100092.16;107752;1280;22027;-71
2023/07/06 07:48:55;;;;;;;3.80;3.30;;;;;;;44.84;27.55;100091.11;107745;1283;21992;-71
2023/07/06 07:51:23;;;;;;;7.60;4.30;;;;;;;45.00;27.58;100091.20;107736;1291;21992;-66
2023/07/06 07:53:50;;;;;;;8.30;3.80;;;;;;;45.16;27.30;100090.41;107784;1279;21999;-64
2023/07/06 07:56:15;;;;;;;5.10;3.40;;;;;;;45.31;27.27;100088.69;107714;1291;22037;-63
2023/07/06 07:58:41;;;;;;;8.50;3.60;;;;;;;45.46;27.19;100089.98;107738;1291;21994;-63
2023/07/06 08:01:13;;;;;;;6.70;3.30;;;;;;;45.55;26.51;100088.43;107812;1279;23852;-62
2023/07/06 08:03:38;;;;;;;7.10;3.40;;;;;;;45.51;26.48;100087.70;107791;1284;22083;-71
2023/07/06 08:06:08;;;;;;;6.10;3.40;;;;;;;45.64;26.50;100084.03;107763;1290;22052;-63
2023/07/06 08:08:35;;;;;;;9.20;3.30;;;;;;;45.84;26.03;100080.72;107825;1284;21988;-71
2023/07/06 08:11:03;;;;;;;6.40;3.10;;;;;;;46.01;25.78;100080.23;107802;1290;21989;-62
2023/07/06 08:13:29;;;;;;;5.20;3.50;;;;;;;46.18;25.67;100078.73;107804;1287;22027;-61
2023/07/06 08:15:55;;;;;;;6.00;3.50;;;;;;;46.34;25.61;100077.88;107717;1290;22079;-62
2023/07/06 08:18:24;;;;;;;5.30;3.00;;;;;;;46.53;25.43;100076.93;107724;1286;21992;-62
2023/07/06 08:20:59;;;;;;;6.70;3.90;;;;;;;46.69;24.77;100075.89;107809;1284;22007;-70
2023/07/06 08:23:26;;;;;;;4.40;3.20;;;;;;;46.76;24.63;100078.73;107927;1280;21996;-70
2023/07/06 08:25:52;;;;;;;8.00;3.60;;;;;;;46.71;24.78;100077.23;107934;1281;21987;-70
2023/07/06 08:28:24;;;;;;;5.00;3.20;;;;;;;46.81;24.86;100076.75;107821;1290;22167;-70
2023/07/06 08:30:51;;;;;;;5.50;3.00;;;;;;;47.01;24.75;100081.17;108060;1287;22463;-62
2023/07/06 08:33:21;;;;;;;4.90;3.40;;;;;;;47.17;24.08;100074.52;107958;1290;21991;-70
2023/07/06 08:35:47;;;;;;;5.90;3.50;;;;;;;47.27;24.22;100075.10;107856;1287;21987;-69
2023/07/06 08:38:13;;;;;;;8.00;3.70;;;;;;;47.41;24.15;100077.09;107771;1287;21987;-70
2023/07/06 08:40:40;;;;;;;8.70;3.80;;;;;;;47.60;24.10;100078.19;107765;1290;22387;-61
2023/07/06 08:43:08;;;;;;;7.50;3.70;;;;;;;47.75;23.65;100075.38;107769;1290;22719;-61
2023/07/06 08:45:41;;;;;;;6.10;3.00;;;;;;;47.70;23.15;100071.64;107766;1288;21986;-70
2023/07/06 08:48:16;;;;;;;6.80;3.50;;;;;;;47.63;23.46;100074.14;107722;1290;22102;-69
2023/07/06 08:50:54;;;;;;;8.80;3.20;;;;;;;47.74;23.47;100070.42;107891;1287;21988;-69
2023/07/06 08:53:21;;;;;;;7.70;3.90;;;;;;;47.83;23.25;100067.94;107924;1279;21995;-61
2023/07/06 08:55:49;;;;;;;5.90;3.60;;;;;;;47.88;23.26;100068.71;107743;1290;22000;-70
2023/07/06 08:58:23;;;;;;;8.00;3.40;;;;;;;47.96;23.08;100061.38;107806;1280;21984;-60
2023/07/06 09:00:49;;;;;;;5.50;3.50;;;;;;;48.21;22.98;100063.98;107756;1290;24420;-69
2023/07/06 09:03:14;;;;;;;6.30;3.30;;;;;;;48.38;22.93;100062.59;107965;1286;21990;-70
2023/07/06 09:05:46;;;;;;;7.70;3.30;;;;;;;48.52;22.70;100061.86;107911;1280;22005;-70
2023/07/06 09:08:15;;;;;;;7.60;3.60;;;;;;;48.65;22.68;100064.19;107738;1290;21999;-70
2023/07/06 09:10:41;;;;;;;4.60;3.30;;;;;;;48.73;22.39;100061.58;107728;1286;21988;-70
2023/07/06 09:13:15;;;;;;;6.10;3.50;;;;;;;48.77;22.27;100061.86;107763;1290;21992;-62
2023/07/06 09:15:44;;;;;;;5.30;3.20;;;;;;;48.76;22.23;100062.81;108049;1290;21985;-71
2023/07/06 09:18:13;;;;;;;6.10;3.60;;;;;;;48.77;22.33;100060.34;107785;1284;21995;-61
2023/07/06 09:20:39;;;;;;;8.60;3.60;;;;;;;48.95;22.13;100058.62;107800;1290;22851;-70
2023/07/06 09:23:06;;;;;;;5.30;3.90;;;;;;;49.18;22.03;100058.45;107795;1290;21987;-63
2023/07/06 09:25:42;;;;;;;5.40;3.00;;;;;;;49.33;21.87;100058.60;107779;1290;22001;-71
2023/07/06 09:28:16;;;;;;;4.70;3.10;;;;;;;49.36;21.34;100052.00;107847;1290;23154;-62
2023/07/06 09:30:42;;;;;;;4.40;3.00;;;;;;;49.22;21.33;100056.20;107766;1290;21992;-70
2023/07/06 09:33:24;;;;;;;7.80;3.70;;;;;;;49.21;21.39;100055.48;107797;1290;21987;-71
2023/07/06 09:35:54;;;;;;;5.90;3.20;;;;;;;49.37;21.40;100051.31;107809;1287;22541;-62
2023/07/06 09:38:20;;;;;;;5.10;3.00;;;;;;;49.52;21.33;100049.76;107807;1287;21995;-70
2023/07/06 09:40:46;;;;;;;3.90;3.10;;;;;;;49.67;21.18;100051.21;107770;1290;22035;-63
2023/07/06 09:43:25;;;;;;;4.50;3.60;;;;;;;49.73;19.88;100048.33;107770;1290;21993;-70
2023/07/06 09:45:52;;;;;;;7.70;3.50;;;;;;;49.54;20.45;100048.66;107802;1286;21986;-63
2023/07/06 09:48:37;;;;;;;4.90;3.30;;;;;;;49.49;20.63;100043.39;107866;1290;21999;-62
2023/07/06 09:51:23;;;;;;;6.30;3.60;;;;;;;49.59;20.48;100043.67;107945;1286;21995;-62
2023/07/06 09:53:52;;;;;;;7.20;3.50;;;;;;;49.72;20.62;100036.66;107745;1290;21998;-61
2023/07/06 09:56:18;;;;;;;5.40;3.90;;;;;;;49.95;20.37;100037.95;107814;1290;21998;-69
2023/07/06 09:58:46;;;;;;;5.60;3.60;;;;;;;50.14;20.29;100034.69;107810;1281;22166;-70
2023/07/06 10:01:37;;;;;;;5.10;3.60;;;;;;;50.19;19.70;100028.34;107800;1290;22121;-69
2023/07/06 10:04:19;;;;;;;6.30;3.60;;;;;;;50.15;20.07;100028.64;107877;1287;22001;-61
2023/07/06 10:07:27;;;;;;;5.90;3.70;;;;;;;50.37;20.07;100026.15;107898;1290;21988;-62
2023/07/06 10:10:08;;;;;;;9.00;3.30;;;;;;;50.52;19.84;100020.92;107324;1297;22008;-69
2023/07/06 10:12:45;;;;;;;7.20;3.60;;;;;;;50.71;19.75;100019.77;107294;1296;22041;-70
2023/07/06 10:15:21;;;;;;;5.50;3.50;;;;;;;50.91;19.46;100017.33;107603;1290;22935;-61
2023/07/06 10:17:50;;;;;;;5.00;3.70;;;;;;;50.93;19.14;100012.42;107785;1277;23749;-62
2023/07/06 10:20:25;;;;;;;7.00;3.20;;;;;;;50.72;19.24;100009.06;107822;1290;22047;-69
2023/07/06 10:23:00;;;;;;;5.20;3.20;;;;;;;50.65;19.27;100008.53;107745;1290;21991;-62
2023/07/06 10:25:33;;;;;;;6.90;3.20;;;;;;;50.72;19.04;100007.90;107724;1290;21997;-63
2023/07/06 10:28:18;;;;;;;5.40;3.20;;;;;;;50.88;19.04;100008.23;107823;1290;21986;-68
2023/07/06 10:30:46;;;;;;;9.70;3.20;;;;;;;51.06;19.03;100001.55;107779;1291;21985;-69
2023/07/06 10:33:18;;;;;;;5.60;3.20;;;;;;;51.23;18.87;100002.23;107757;1287;21989;-70
2023/07/06 10:35:45;;;;;;;11.20;3.80;;;;;;;51.40;18.59;100000.05;107799;1291;21990;-69
2023/07/06 10:38:11;;;;;;;7.40;3.70;;;;;;;51.51;18.48;99993.27;107783;1291;22332;-70
2023/07/06 10:40:37;;;;;;;5.80;2.90;;;;;;;51.47;18.29;99993.38;107760;1290;22027;-62
2023/07/06 10:43:12;;;;;;;5.50;3.30;;;;;;;51.53;18.36;99988.70;107754;1290;21999;-68
2023/07/06 10:45:51;;;;;;;6.10;3.40;;;;;;;51.65;18.04;99984.17;107851;1290;21986;-62
2023/07/06 10:48:30;;;;;;;;;;;;;;;51.46;17.53;99984.27;107816;1280;21980;-68
2023/07/06 10:51:17;;;;;;;7.10;3.10;;;;;;;51.03;17.75;99981.05;107800;1280;21989;-67
2023/07/06 10:53:47;;;;;;;6.50;3.10;;;;;;;50.89;18.01;99978.52;107817;1284;21988;-60
2023/07/06 10:56:19;;;;;;;6.70;2.90;;;;;;;51.05;17.77;99972.45;107803;1284;22083;-69
2023/07/06 10:58:55;;;;;;;5.50;2.80;;;;;;;51.27;17.99;99971.97;107913;1290;21990;-62
2023/07/06 11:01:39;;;;;;;10.00;3.30;;;;;;;51.46;17.87;99972.65;107763;1286;21989;-62
2023/07/06 11:04:36;;;;;;;8.40;3.00;;;;;;;51.54;17.79;99971.23;107833;1286;21991;-69
2023/07/06 11:07:01;;;;;;;7.60;3.10;;;;;;;51.54;17.49;99965.77;107783;1284;21989;-68
2023/07/06 11:09:28;;;;;;;7.60;3.10;;;;;;;51.43;17.39;99960.99;107811;1290;22002;-62
2023/07/06 11:11:56;;;;;;;4.80;2.70;;;;;;;51.25;17.22;99958.96;107710;1290;21980;-69
2023/07/06 11:14:33;;;;;;;5.00;2.90;;;;;;;51.07;17.17;99959.69;107852;1290;22040;-62
2023/07/06 11:17:20;;;;;;;6.10;2.70;;;;;;;50.84;17.08;99959.76;107834;1290;22000;-68
2023/07/06 11:19:59;;;;;;;8.40;3.50;;;;;;;50.43;16.36;99956.68;107824;1284;22011;-69
2023/07/06 11:22:25;;;;;;;5.20;3.20;;;;;;;50.01;16.23;99952.66;107797;1290;22013;-69
2023/07/06 11:24:53;;;;;;;9.30;3.00;;;;;;;49.71;16.46;99950.39;107810;1290;22028;-61
2023/07/06 11:27:32;;;;;;;5.00;3.00;;;;;;;49.56;16.81;99950.84;107839;1284;21993;-68
2023/07/06 11:30:29;;;;;;;4.20;2.80;;;;;;;49.60;16.61;99944.16;107856;1290;22452;-68